Tropical Cyclones
[Index]
Main Index Home Page Stock Weather Photos Extreme Storms Discussion Storm News and Storm Chasing Reports Tropical Cyclones / Hurricanes / Typhoons Weather Data and Links Wild Fires / Bushfires Weather Observation Techniques Weather Picture Catalogue Tornado Pictures and Reports Stock Video Footage and DVDs for sale
Season 2008-2009 Tropical Cyclone LIN Track Map
Season 2008-2009 Summaries (Operational Data): [AU] [SIO] [SPAC] [SH]
<<- Previous TC | 2008-2009 Season | Next TC ->>

click for intensity scale information  Lat/long Grid: Show Hide

 Date Labels: Show Hide

Operational Tropical Cyclone Data : JTWC Advisories

Name: LIN
Number: 0925

31 Mar 2009 21:00 UTC to 09 Apr 2009 00:00 UTC

    date/time    lat    long     hPa   cat  kts
2009-03-31 21   17.0   176.5    1001         25          
2009-04-01 06   17.0   178.0    1002         25          
2009-04-01 21   16.0   179.0    1002         25          
2009-04-02 06   16.0   179.0    1002         25          
2009-04-02 21   14.6   178.8    1002         25          
2009-04-03 00   14.5   178.8    1002         25          
2009-04-03 06   14.7   179.6    1000         25          
2009-04-03 12   15.7   178.9W   1000         30          
2009-04-03 18   16.6   176.4W    995    1    40          
2009-04-04 00   18.0   175.7W    990    1    45          
2009-04-04 06   18.8   175.6W    985    2    50          
2009-04-04 12   19.5   175.5W    980    2    55          
2009-04-04 18   20.5   175.5W    980    2    55          
2009-04-05 00   21.4   175.1W    975    2    60          
2009-04-05 06   23.4   174.8W    975    2    60          
2009-04-05 12   24.1   174.6W    980    2    55          
2009-04-05 18   25.0   174.1W    985    2    50          
2009-04-06 00   26.0   173.0W    988    1    35          
2009-04-06 06   28.0   172.0W    988    1    35          
2009-04-06 12   29.0   171.0W    991    1    35          
2009-04-06 18   31.0   168.0W   1000    1    35          
2009-04-07 00   31.0   169.0W    998    1    35          
2009-04-07 06   34.0   167.0W    992    1    45          
2009-04-07 12   34.0   166.0W    992    1    35          
2009-04-07 18   35.0   165.0W    992    1    35          
2009-04-08 00   35.0   163.0W    995    1    35          
2009-04-08 06   35.1   162.5W    998                     
2009-04-08 12   36.3   160.6W   1000                     
2009-04-08 18   37.1   159.1W   1003                     
2009-04-09 00   38.9   158.1W   1005                     
Winds are 10-min average.

Tropical cyclone tracks developed by Michael Bath using operational warnings and advisories and Google Maps.


[Australian Severe Weather index] [Copyright Notice] [Email Contacts] [Search This Site] [Privacy Policy]
Document: tropical_cyclone_lin.htm Updated: 28 May 2013